createdAt,value
2022-12-03T00:00:25.358Z,16.53
2022-12-03T00:02:51.926Z,16.03
2022-12-03T00:05:18.495Z,18.97
2022-12-03T00:07:45.050Z,17.07
2022-12-03T00:10:12.046Z,17.00
2022-12-03T00:12:38.557Z,18.07
2022-12-03T00:15:05.848Z,16.70
2022-12-03T00:17:32.298Z,18.30
2022-12-03T00:19:58.699Z,17.07
2022-12-03T00:22:25.128Z,16.93
2022-12-03T00:24:51.943Z,18.43
2022-12-03T00:27:18.621Z,16.30
2022-12-03T00:29:45.038Z,17.33
2022-12-03T00:32:11.505Z,16.60
2022-12-03T00:34:37.894Z,16.77
2022-12-03T00:37:04.421Z,18.53
2022-12-03T00:39:31.015Z,17.57
2022-12-03T00:41:57.421Z,17.57
2022-12-03T00:44:23.861Z,17.70
2022-12-03T00:46:50.343Z,17.40
2022-12-03T00:49:16.792Z,19.80
2022-12-03T00:51:43.258Z,16.50
2022-12-03T00:54:09.663Z,17.30
2022-12-03T00:56:36.050Z,16.43
2022-12-03T00:59:02.462Z,18.37
2022-12-03T01:01:28.948Z,19.00
2022-12-03T01:03:55.414Z,17.43
2022-12-03T01:06:21.833Z,17.33
2022-12-03T01:08:48.225Z,15.20
2022-12-03T01:11:44.027Z,18.33
2022-12-03T01:14:10.414Z,21.07
2022-12-03T01:16:37.386Z,18.17
2022-12-03T01:19:04.717Z,18.23
2022-12-03T01:21:31.366Z,17.40
2022-12-03T01:23:57.931Z,18.03
2022-12-03T01:26:25.502Z,17.67
2022-12-03T01:28:52.359Z,18.97
2022-12-03T01:31:37.700Z,18.17
2022-12-03T01:34:04.308Z,19.10
2022-12-03T01:36:30.749Z,18.33
2022-12-03T01:38:57.289Z,18.07
2022-12-03T01:41:24.321Z,18.43
2022-12-03T01:43:51.250Z,18.73
2022-12-03T01:46:22.391Z,16.37
2022-12-03T01:48:51.714Z,16.13
2022-12-03T01:51:18.194Z,13.63
2022-12-03T01:53:46.922Z,17.50
2022-12-03T01:56:14.546Z,16.70
2022-12-03T01:58:41.795Z,19.33
2022-12-03T02:01:11.998Z,17.50
2022-12-03T02:03:38.458Z,21.17
2022-12-03T02:06:06.436Z,21.07
2022-12-03T02:08:34.688Z,16.80
2022-12-03T02:11:05.742Z,20.80
2022-12-03T02:13:32.264Z,17.50
2022-12-03T02:15:58.832Z,20.10
2022-12-03T02:18:25.380Z,18.83
2022-12-03T02:21:03.820Z,16.00
2022-12-03T02:23:35.925Z,17.60
2022-12-03T02:26:02.307Z,16.37
2022-12-03T02:28:28.801Z,17.83
2022-12-03T02:30:55.231Z,16.50
2022-12-03T02:33:21.654Z,15.37
2022-12-03T02:35:48.478Z,16.17
2022-12-03T02:38:19.730Z,17.30
2022-12-03T02:40:47.112Z,15.37
2022-12-03T02:43:15.022Z,14.17
2022-12-03T02:45:42.538Z,15.13
2022-12-03T02:48:14.212Z,15.33
2022-12-03T02:50:42.670Z,18.33
2022-12-03T02:53:15.310Z,16.20
2022-12-03T02:55:42.206Z,14.03
2022-12-03T02:58:08.843Z,13.93
2022-12-03T03:00:35.950Z,16.17
2022-12-03T03:03:04.138Z,13.10
2022-12-03T03:05:31.056Z,13.77
2022-12-03T03:07:58.409Z,13.90
2022-12-03T03:10:25.360Z,13.90
2022-12-03T03:12:52.847Z,12.73
2022-12-03T03:15:19.787Z,12.70
2022-12-03T03:17:46.217Z,14.07
2022-12-03T03:20:13.653Z,12.40
2022-12-03T03:22:40.956Z,13.23
2022-12-03T03:25:08.976Z,13.73
2022-12-03T03:27:35.794Z,11.83
2022-12-03T03:30:02.230Z,9.80
2022-12-03T03:32:28.877Z,10.23
2022-12-03T03:34:55.864Z,10.37
2022-12-03T03:37:23.638Z,9.70
2022-12-03T03:39:50.099Z,10.77
2022-12-03T03:42:16.908Z,11.27
2022-12-03T03:44:43.479Z,12.20
2022-12-03T03:47:10.211Z,12.23
2022-12-03T03:49:36.800Z,12.13
2022-12-03T03:52:03.643Z,10.40
2022-12-03T03:54:30.625Z,13.67
2022-12-03T03:56:57.435Z,12.63
2022-12-03T03:59:23.972Z,13.57
2022-12-03T04:01:50.388Z,13.53
2022-12-03T04:04:21.498Z,13.77
2022-12-03T04:06:48.189Z,13.23
2022-12-03T04:09:14.782Z,12.90
2022-12-03T04:11:59.599Z,15.37
2022-12-03T04:14:26.155Z,12.70
2022-12-03T04:16:52.589Z,13.47
2022-12-03T04:19:19.050Z,11.53
2022-12-03T04:22:04.012Z,14.07
2022-12-03T04:24:30.443Z,13.90
2022-12-03T04:27:15.468Z,13.87
2022-12-03T04:29:41.890Z,17.07
2022-12-03T04:32:26.705Z,15.80
2022-12-03T04:35:11.696Z,14.87
2022-12-03T04:37:38.130Z,15.40
2022-12-03T04:40:24.811Z,14.13
2022-12-03T04:42:51.194Z,16.13
2022-12-03T04:45:17.604Z,15.70
2022-12-03T04:47:44.067Z,17.63
2022-12-03T04:50:10.707Z,17.07
2022-12-03T04:52:37.113Z,16.43
2022-12-03T04:55:03.741Z,15.93
2022-12-03T04:57:30.139Z,17.50
2022-12-03T04:59:56.544Z,17.00
2022-12-03T05:02:23.045Z,19.63
2022-12-03T05:04:49.464Z,20.10
2022-12-03T05:07:15.855Z,18.93
2022-12-03T05:09:42.476Z,19.23
2022-12-03T05:12:08.880Z,18.00
2022-12-03T05:14:35.287Z,19.10
2022-12-03T05:17:01.756Z,21.97
2022-12-03T05:19:48.173Z,20.93
2022-12-03T05:22:14.626Z,19.40
2022-12-03T05:24:41.025Z,19.83
2022-12-03T05:27:07.427Z,20.10
2022-12-03T05:29:33.994Z,22.23
2022-12-03T05:32:00.395Z,22.57
2022-12-03T05:34:26.783Z,21.23
2022-12-03T05:36:53.218Z,24.73
2022-12-03T05:39:19.648Z,30.43
2022-12-03T05:42:07.741Z,24.63
2022-12-03T05:44:34.165Z,27.77
2022-12-03T05:47:00.586Z,25.30
2022-12-03T05:49:27.035Z,25.53
2022-12-03T05:51:58.192Z,24.53
2022-12-03T05:54:25.228Z,28.47
2022-12-03T05:56:51.701Z,23.93
2022-12-03T05:59:18.149Z,26.43
2022-12-03T06:01:44.569Z,27.50
2022-12-03T06:04:11.004Z,24.87
2022-12-03T06:06:37.416Z,28.53
2022-12-03T06:09:04.064Z,28.30
2022-12-03T06:11:30.670Z,27.07
2022-12-03T06:13:57.074Z,29.53
2022-12-03T06:16:23.545Z,25.47
2022-12-03T06:18:50.034Z,27.03
2022-12-03T06:21:16.639Z,31.23
2022-12-03T06:23:46.707Z,25.40
2022-12-03T06:26:13.860Z,27.20
2022-12-03T06:28:41.037Z,28.33
2022-12-03T06:31:07.612Z,26.60
2022-12-03T06:33:34.116Z,26.23
2022-12-03T06:36:00.532Z,22.87
2022-12-03T06:38:28.750Z,25.03
2022-12-03T06:40:55.204Z,24.37
2022-12-03T06:43:21.598Z,24.17
2022-12-03T06:45:48.214Z,24.67
2022-12-03T06:48:14.745Z,29.73
2022-12-03T06:50:41.180Z,22.57
2022-12-03T06:53:07.612Z,23.13
2022-12-03T06:55:34.047Z,24.33
2022-12-03T06:58:00.461Z,26.73
2022-12-03T07:00:26.887Z,26.53
2022-12-03T07:02:53.480Z,25.57
2022-12-03T07:05:20.060Z,26.67
2022-12-03T07:07:52.077Z,27.20
2022-12-03T07:10:19.051Z,25.10
2022-12-03T07:12:45.450Z,26.40
2022-12-03T07:15:12.106Z,27.03
2022-12-03T07:17:38.548Z,40.50
2022-12-03T07:20:05.476Z,26.27
2022-12-03T07:22:31.902Z,24.17
2022-12-03T07:24:58.344Z,27.93
2022-12-03T07:27:24.833Z,23.30
2022-12-03T07:29:51.520Z,23.50
2022-12-03T07:32:18.037Z,24.93
2022-12-03T07:34:44.470Z,24.83
2022-12-03T07:37:10.914Z,22.10
2022-12-03T07:39:37.394Z,23.13
2022-12-03T07:42:03.878Z,23.87
2022-12-03T07:44:31.852Z,25.17
2022-12-03T07:46:58.835Z,22.17
2022-12-03T07:49:26.678Z,21.47
2022-12-03T07:51:57.039Z,20.90
2022-12-03T07:54:24.313Z,22.13
2022-12-03T07:56:50.813Z,22.53
2022-12-03T07:59:17.535Z,23.00
2022-12-03T08:01:44.054Z,23.30
2022-12-03T08:04:11.453Z,21.43
2022-12-03T08:06:37.856Z,21.37
2022-12-03T08:09:04.511Z,39.00
2022-12-03T08:11:32.320Z,28.70
2022-12-03T08:13:59.211Z,21.93
2022-12-03T08:16:26.093Z,20.53
2022-12-03T08:18:54.156Z,22.43
2022-12-03T08:21:21.818Z,20.87
2022-12-03T08:23:48.414Z,22.43
2022-12-03T08:26:25.109Z,21.70
2022-12-03T08:28:52.396Z,27.20
2022-12-03T08:31:32.446Z,28.20
2022-12-03T08:34:06.564Z,29.47
2022-12-03T08:36:33.389Z,22.80
2022-12-03T08:39:12.809Z,21.70
2022-12-03T08:41:58.105Z,22.83
2022-12-03T08:44:29.252Z,22.23
2022-12-03T08:47:01.177Z,22.50
2022-12-03T08:49:30.113Z,21.73
2022-12-03T08:51:59.812Z,20.50
2022-12-03T08:54:26.970Z,20.37
2022-12-03T08:56:53.834Z,20.03
2022-12-03T08:59:31.016Z,18.57
2022-12-03T09:01:58.675Z,17.53
2022-12-03T09:04:53.252Z,19.30
2022-12-03T09:07:20.244Z,19.83
2022-12-03T09:09:46.603Z,20.20
2022-12-03T09:12:13.010Z,19.83
2022-12-03T09:14:39.500Z,20.27
2022-12-03T09:17:06.056Z,21.67
2022-12-03T09:19:32.612Z,22.67
2022-12-03T09:21:59.203Z,20.97
2022-12-03T09:24:25.681Z,20.47
2022-12-03T09:26:52.271Z,21.53
2022-12-03T09:29:18.708Z,19.17
2022-12-03T09:31:45.387Z,20.83
2022-12-03T09:34:12.012Z,20.43
2022-12-03T09:36:38.549Z,22.57
2022-12-03T09:39:05.061Z,21.10
2022-12-03T09:41:31.602Z,22.83
2022-12-03T09:44:05.827Z,28.47
2022-12-03T09:46:35.261Z,36.03
2022-12-03T09:49:02.771Z,23.70
2022-12-03T09:51:31.710Z,20.43
2022-12-03T09:53:59.266Z,23.17
2022-12-03T09:56:25.785Z,22.27
2022-12-03T09:58:52.515Z,23.73
2022-12-03T10:01:22.441Z,24.00
2022-12-03T10:03:52.827Z,24.67
2022-12-03T10:06:20.519Z,22.37
2022-12-03T10:08:48.798Z,21.43
2022-12-03T10:11:15.869Z,18.33
2022-12-03T10:13:42.409Z,19.97
2022-12-03T10:16:15.348Z,22.03
2022-12-03T10:18:44.193Z,23.83
2022-12-03T10:21:22.754Z,20.83
2022-12-03T10:23:55.147Z,22.27
2022-12-03T10:26:35.851Z,25.83
2022-12-03T10:29:02.281Z,26.03
2022-12-03T10:31:35.256Z,24.57
2022-12-03T10:34:01.674Z,24.83
2022-12-03T10:36:28.213Z,22.93
2022-12-03T10:39:06.773Z,22.57
2022-12-03T10:41:33.413Z,24.73
2022-12-03T10:44:14.647Z,23.17
2022-12-03T10:46:41.393Z,23.23
2022-12-03T10:49:18.486Z,20.60
2022-12-03T10:51:49.161Z,21.90
2022-12-03T10:54:22.597Z,23.50
2022-12-03T10:56:50.309Z,19.67
2022-12-03T10:59:24.291Z,20.13
2022-12-03T11:01:51.062Z,20.37
2022-12-03T11:04:36.481Z,20.10
2022-12-03T11:07:03.467Z,19.80
2022-12-03T11:09:31.279Z,19.67
2022-12-03T11:12:07.436Z,22.17
2022-12-03T11:14:49.078Z,21.13
2022-12-03T11:17:35.630Z,23.37
2022-12-03T11:20:02.252Z,22.47
2022-12-03T11:22:39.009Z,19.10
2022-12-03T11:25:24.299Z,21.87
2022-12-03T11:28:11.211Z,20.80
2022-12-03T11:30:56.684Z,19.23
2022-12-03T11:33:30.850Z,21.30
2022-12-03T11:36:02.863Z,20.20
2022-12-03T11:38:38.322Z,30.97
2022-12-03T11:41:11.032Z,26.83
2022-12-03T11:44:09.852Z,31.53
2022-12-03T11:46:36.427Z,32.70
2022-12-03T11:49:04.670Z,26.43
2022-12-03T11:51:31.295Z,24.63
2022-12-03T11:53:58.576Z,22.83
2022-12-03T11:56:26.604Z,21.47
2022-12-03T11:59:00.191Z,21.10
2022-12-03T12:01:39.497Z,22.13
2022-12-03T12:04:06.799Z,21.80
2022-12-03T12:06:42.552Z,20.47
2022-12-03T12:09:12.122Z,21.27
2022-12-03T12:11:43.993Z,23.07
2022-12-03T12:14:12.143Z,20.93
2022-12-03T12:16:52.722Z,22.67
2022-12-03T12:19:37.650Z,23.10
2022-12-03T12:22:22.949Z,23.60
2022-12-03T12:24:53.930Z,23.97
2022-12-03T12:27:47.473Z,21.50
2022-12-03T12:30:17.153Z,22.90
2022-12-03T12:32:50.539Z,22.23
2022-12-03T12:35:17.345Z,24.13
2022-12-03T12:37:59.687Z,21.40
2022-12-03T12:40:29.035Z,20.37
2022-12-03T12:43:24.146Z,22.57
2022-12-03T12:45:53.330Z,22.63
2022-12-03T12:48:19.821Z,24.70
2022-12-03T12:50:47.527Z,22.53
2022-12-03T12:53:25.772Z,25.60
2022-12-03T12:55:56.525Z,22.20
2022-12-03T12:58:23.094Z,23.40
2022-12-03T13:00:53.675Z,22.80
2022-12-03T13:03:22.036Z,24.60
2022-12-03T13:05:50.914Z,22.97
2022-12-03T13:08:17.491Z,24.40
2022-12-03T13:10:44.208Z,23.70
2022-12-03T13:13:23.320Z,24.33
2022-12-03T13:16:11.476Z,22.60
2022-12-03T13:18:43.319Z,34.03
2022-12-03T13:21:15.669Z,32.47
2022-12-03T13:23:42.327Z,48.07
2022-12-03T13:26:30.508Z,26.70
2022-12-03T13:29:06.733Z,27.33
2022-12-03T13:31:43.193Z,24.13
2022-12-03T13:34:31.706Z,21.70
2022-12-03T13:37:00.202Z,25.00
2022-12-03T13:39:35.222Z,24.10
2022-12-03T13:42:41.175Z,26.50
2022-12-03T13:45:16.735Z,24.50
2022-12-03T13:47:50.131Z,24.23
2022-12-03T13:50:30.910Z,23.17
2022-12-03T13:52:57.664Z,26.80
2022-12-03T13:55:28.605Z,24.07
2022-12-03T13:57:55.675Z,24.37
2022-12-03T14:00:22.478Z,21.17
2022-12-03T14:02:50.997Z,21.63
2022-12-03T14:05:17.819Z,22.00
2022-12-03T14:07:44.608Z,28.00
2022-12-03T14:10:12.924Z,25.23
2022-12-03T14:12:39.596Z,28.00
2022-12-03T14:15:06.645Z,30.17
2022-12-03T14:17:33.272Z,27.03
2022-12-03T14:20:03.783Z,37.60
2022-12-03T14:22:30.910Z,65.33
2022-12-03T14:24:57.985Z,26.00
2022-12-03T14:27:24.896Z,22.70
2022-12-03T14:29:52.234Z,24.67
2022-12-03T14:32:19.302Z,24.70
2022-12-03T14:34:45.917Z,34.90
2022-12-03T14:37:12.653Z,28.93
2022-12-03T14:39:39.651Z,34.33
2022-12-03T14:42:15.514Z,26.40
2022-12-03T14:44:46.351Z,24.43
2022-12-03T14:47:13.390Z,77.47
2022-12-03T14:49:40.163Z,39.23
2022-12-03T14:52:11.331Z,26.77
2022-12-03T14:54:39.278Z,23.77
2022-12-03T14:57:05.950Z,27.67
2022-12-03T14:59:32.611Z,25.53
2022-12-03T15:01:59.378Z,28.77
2022-12-03T15:04:26.157Z,28.67
2022-12-03T15:06:52.834Z,29.80
2022-12-03T15:09:19.415Z,31.17
2022-12-03T15:11:46.772Z,29.70
2022-12-03T15:14:13.562Z,32.90
2022-12-03T15:16:40.390Z,54.63
2022-12-03T15:19:07.198Z,35.07
2022-12-03T15:21:35.111Z,31.37
2022-12-03T15:24:02.304Z,33.93
2022-12-03T15:26:28.940Z,32.37
2022-12-03T15:28:55.455Z,32.23
2022-12-03T15:31:21.987Z,33.43
2022-12-03T15:33:48.922Z,33.27
2022-12-03T15:36:15.375Z,32.97
2022-12-03T15:38:41.994Z,34.70
2022-12-03T15:41:21.191Z,33.27
2022-12-03T15:43:48.290Z,33.60
2022-12-03T15:46:14.948Z,32.97
2022-12-03T15:48:41.458Z,34.60
2022-12-03T15:51:08.028Z,33.17
2022-12-03T15:53:34.819Z,33.67
2022-12-03T15:56:01.353Z,34.47
2022-12-03T15:58:28.153Z,36.73
2022-12-03T16:00:54.637Z,35.90
2022-12-03T16:03:21.450Z,35.00
2022-12-03T16:05:48.094Z,36.27
2022-12-03T16:08:14.737Z,33.77
2022-12-03T16:10:41.349Z,35.97
2022-12-03T16:13:07.954Z,38.57
2022-12-03T16:15:35.229Z,41.93
2022-12-03T16:18:02.898Z,39.47
2022-12-03T16:20:29.678Z,38.43
2022-12-03T16:22:56.140Z,41.50
2022-12-03T16:25:22.744Z,36.70
2022-12-03T16:27:49.483Z,34.43
2022-12-03T16:30:15.982Z,37.77
2022-12-03T16:32:42.447Z,84.67
2022-12-03T16:35:09.132Z,60.17
2022-12-03T16:37:35.805Z,45.00
2022-12-03T16:40:03.138Z,33.00
2022-12-03T16:42:29.805Z,30.27
2022-12-03T16:45:08.114Z,27.23
2022-12-03T16:47:35.049Z,26.60
2022-12-03T16:50:02.345Z,30.10
2022-12-03T16:52:28.802Z,31.70
2022-12-03T16:54:55.539Z,30.50
2022-12-03T16:57:31.727Z,30.63
2022-12-03T17:00:00.883Z,26.73
2022-12-03T17:02:28.051Z,27.57
2022-12-03T17:04:54.879Z,26.03
2022-12-03T17:07:21.752Z,28.37
2022-12-03T17:09:49.165Z,28.50
2022-12-03T17:12:17.103Z,30.63
2022-12-03T17:14:43.906Z,25.20
2022-12-03T17:17:10.679Z,27.67
2022-12-03T17:19:37.292Z,27.33
2022-12-03T17:22:04.167Z,29.07
2022-12-03T17:24:30.784Z,30.67
2022-12-03T17:26:57.250Z,29.57
2022-12-03T17:29:24.051Z,29.80
2022-12-03T17:31:50.877Z,29.43
2022-12-03T17:34:17.706Z,31.77
2022-12-03T17:36:44.432Z,30.60
2022-12-03T17:39:11.163Z,31.60
2022-12-03T17:41:37.896Z,34.33
2022-12-03T17:44:09.686Z,32.17
2022-12-03T17:46:36.980Z,33.77
2022-12-03T17:49:03.831Z,32.97
2022-12-03T17:51:31.887Z,35.90
2022-12-03T17:53:58.608Z,34.17
2022-12-03T17:56:25.538Z,31.07
2022-12-03T17:58:52.227Z,34.13
2022-12-03T18:01:18.945Z,31.43
2022-12-03T18:03:45.807Z,34.03
2022-12-03T18:06:12.564Z,30.17
2022-12-03T18:08:39.252Z,31.47
2022-12-03T18:11:05.733Z,32.10
2022-12-03T18:13:32.407Z,30.53
2022-12-03T18:15:59.043Z,33.63
2022-12-03T18:18:45.696Z,31.23
2022-12-03T18:21:12.455Z,29.43
2022-12-03T18:23:39.343Z,31.67
2022-12-03T18:26:06.272Z,32.50
2022-12-03T18:28:33.209Z,31.70
2022-12-03T18:31:00.092Z,31.80
2022-12-03T18:33:27.154Z,32.90
2022-12-03T18:35:54.923Z,31.93
2022-12-03T18:38:31.262Z,33.50
2022-12-03T18:40:57.940Z,36.67
2022-12-03T18:43:26.343Z,34.17
2022-12-03T18:45:53.151Z,36.90
2022-12-03T18:48:19.916Z,34.00
2022-12-03T18:50:46.992Z,32.40
2022-12-03T18:53:14.547Z,33.00
2022-12-03T18:55:42.726Z,31.37
2022-12-03T18:58:09.621Z,33.40
2022-12-03T19:00:36.507Z,34.87
2022-12-03T19:03:04.420Z,33.37
2022-12-03T19:05:35.130Z,29.53
2022-12-03T19:08:02.238Z,33.50
2022-12-03T19:10:29.004Z,32.30
2022-12-03T19:12:55.763Z,28.40
2022-12-03T19:15:23.109Z,35.87
2022-12-03T19:17:49.998Z,30.67
2022-12-03T19:20:17.068Z,33.17
2022-12-03T19:22:43.798Z,33.27
2022-12-03T19:25:10.380Z,31.67
2022-12-03T19:27:36.994Z,34.87
2022-12-03T19:30:04.082Z,32.40
2022-12-03T19:32:30.520Z,33.93
2022-12-03T19:34:57.167Z,34.13
2022-12-03T19:37:23.611Z,39.33
2022-12-03T19:39:53.217Z,36.27
2022-12-03T19:42:20.243Z,36.07
2022-12-03T19:44:47.044Z,36.37
2022-12-03T19:47:13.736Z,33.77
2022-12-03T19:49:40.246Z,33.00
2022-12-03T19:52:06.871Z,33.90
2022-12-03T19:54:33.414Z,37.07
2022-12-03T19:57:00.427Z,34.53
2022-12-03T19:59:27.156Z,32.97
2022-12-03T20:01:53.942Z,30.93
2022-12-03T20:04:20.858Z,31.20
2022-12-03T20:06:48.538Z,33.83
2022-12-03T20:09:18.348Z,31.80
2022-12-03T20:11:45.996Z,36.37
2022-12-03T20:14:15.299Z,36.97
2022-12-03T20:16:42.195Z,35.17
2022-12-03T20:19:10.920Z,30.17
2022-12-03T20:21:38.472Z,29.67
2022-12-03T20:24:06.131Z,33.00
2022-12-03T20:26:33.284Z,31.70
2022-12-03T20:29:00.529Z,39.03
2022-12-03T20:31:28.524Z,32.83
2022-12-03T20:33:56.899Z,34.63
2022-12-03T20:36:24.011Z,35.83
2022-12-03T20:38:55.030Z,33.27
2022-12-03T20:41:21.917Z,34.50
2022-12-03T20:43:48.821Z,37.10
2022-12-03T20:46:20.186Z,37.57
2022-12-03T20:48:47.425Z,35.23
2022-12-03T20:51:15.640Z,33.00
2022-12-03T20:53:43.225Z,32.13
2022-12-03T20:56:10.085Z,32.90
2022-12-03T20:58:37.128Z,36.40
2022-12-03T21:01:16.185Z,34.07
2022-12-03T21:03:43.935Z,32.07
2022-12-03T21:06:11.147Z,32.63
2022-12-03T21:08:42.682Z,32.73
2022-12-03T21:11:18.385Z,33.60
2022-12-03T21:13:45.626Z,35.47
2022-12-03T21:16:14.515Z,34.43
2022-12-03T21:18:41.672Z,32.53
2022-12-03T21:21:10.360Z,31.07
2022-12-03T21:23:57.082Z,33.93
2022-12-03T21:26:24.210Z,32.40
2022-12-03T21:28:52.284Z,35.13
2022-12-03T21:31:20.929Z,31.60
2022-12-03T21:33:47.739Z,31.80
2022-12-03T21:36:16.289Z,34.30
2022-12-03T21:38:43.623Z,34.00
2022-12-03T21:41:10.411Z,44.63
2022-12-03T21:43:37.220Z,33.93
2022-12-03T21:47:12.463Z,32.87
2022-12-03T21:48:56.106Z,32.63
2022-12-03T21:51:23.037Z,34.17
2022-12-03T21:53:49.692Z,32.33
2022-12-03T21:56:17.991Z,35.23
2022-12-03T21:58:45.098Z,30.83
2022-12-03T22:01:12.382Z,31.37
2022-12-03T22:03:39.061Z,34.53
2022-12-03T22:06:05.743Z,30.77
2022-12-03T22:08:32.278Z,32.33
2022-12-03T22:10:58.702Z,30.40
2022-12-03T22:13:25.164Z,29.53
2022-12-03T22:15:51.750Z,33.23
2022-12-03T22:18:18.387Z,33.83
2022-12-03T22:20:44.868Z,30.93
2022-12-03T22:23:11.283Z,32.10
2022-12-03T22:25:37.724Z,32.43
2022-12-03T22:28:04.355Z,33.50
2022-12-03T22:30:31.021Z,31.03
2022-12-03T22:32:57.678Z,32.37
2022-12-03T22:35:24.154Z,33.40
2022-12-03T22:37:50.610Z,31.67
2022-12-03T22:40:17.070Z,30.10
2022-12-03T22:42:49.347Z,28.60
2022-12-03T22:45:17.403Z,30.50
2022-12-03T22:47:43.852Z,29.13
2022-12-03T22:50:10.547Z,28.20
2022-12-03T22:52:37.037Z,28.10
2022-12-03T22:55:03.626Z,29.47
2022-12-03T22:57:30.738Z,28.57
2022-12-03T22:59:57.345Z,33.90
2022-12-03T23:02:23.967Z,30.57
2022-12-03T23:04:50.471Z,31.80
2022-12-03T23:07:16.983Z,30.27
2022-12-03T23:09:43.531Z,32.60
2022-12-03T23:12:10.035Z,31.00
2022-12-03T23:14:36.871Z,31.70
2022-12-03T23:17:03.315Z,30.93
2022-12-03T23:19:29.725Z,26.77
2022-12-03T23:21:56.130Z,31.47
2022-12-03T23:24:22.584Z,29.13
2022-12-03T23:26:49.086Z,31.20
2022-12-03T23:29:15.491Z,28.10
2022-12-03T23:31:42.036Z,28.53
2022-12-03T23:34:08.814Z,26.97
2022-12-03T23:36:35.277Z,27.53
2022-12-03T23:39:01.857Z,29.43
2022-12-03T23:41:28.517Z,30.37
2022-12-03T23:43:56.318Z,30.00
2022-12-03T23:46:24.216Z,31.93
2022-12-03T23:48:51.410Z,29.10
2022-12-03T23:51:19.289Z,29.93
2022-12-03T23:53:45.856Z,31.10
2022-12-03T23:56:13.749Z,30.60
2022-12-03T23:58:40.230Z,31.70
